Time;durP1;ratioP1;P1;durP2;ratioP2;P2;SDS_P1;SDS_P2;PMS_P1;PMS_P2;Temp;Humidity;BMP_temperature;BMP_pressure;BME280_temperature;BME280_humidity;BME280_pressure;Samples;Min_cycle;Max_cycle;Signal;HPM_P1;HPM_P2
2022/09/02 00:01:31;;;;;;;1999.90;999.90;;;14.80;99.90;;;;;;5069196;28;20056;-61
2022/09/02 00:04:01;;;;;;;1999.90;999.90;;;14.70;99.90;;;;;;5071574;28;20451;-61
2022/09/02 00:06:29;;;;;;;1999.90;999.90;;;14.70;99.90;;;;;;5054630;28;20056;-61
2022/09/02 00:08:55;;;;;;;1999.90;999.90;;;14.60;99.90;;;;;;5062135;28;20070;-61
2022/09/02 00:11:24;;;;;;;1999.90;999.90;;;14.60;99.90;;;;;;5087949;28;20037;-61
2022/09/02 00:13:50;;;;;;;1999.90;999.90;;;14.60;99.90;;;;;;5072549;28;20059;-61
2022/09/02 00:16:17;;;;;;;1999.90;999.90;;;14.50;99.90;;;;;;5053866;28;20045;-61
2022/09/02 00:18:43;;;;;;;1999.90;999.90;;;14.50;99.90;;;;;;5048557;28;20060;-61
2022/09/02 00:21:12;;;;;;;1999.90;999.90;;;14.50;99.90;;;;;;5054484;28;20566;-61
2022/09/02 00:23:39;;;;;;;1999.90;999.90;;;14.50;99.90;;;;;;5072679;28;20056;-60
2022/09/02 00:26:05;;;;;;;1999.90;999.90;;;14.50;99.90;;;;;;5067317;28;20052;-61
2022/09/02 00:28:31;;;;;;;1999.90;999.90;;;14.40;99.90;;;;;;5052385;28;20049;-61
2022/09/02 00:30:57;;;;;;;1999.90;999.90;;;14.40;99.90;;;;;;5034762;28;20144;-61
2022/09/02 00:33:22;;;;;;;1999.90;999.90;;;14.40;99.90;;;;;;5051257;28;20403;-61
2022/09/02 00:35:49;;;;;;;1999.90;999.90;;;14.40;99.90;;;;;;5062379;28;20123;-61
2022/09/02 00:38:15;;;;;;;1999.90;999.90;;;14.30;99.90;;;;;;5072529;28;20053;-61
2022/09/02 00:40:45;;;;;;;1999.90;999.90;;;14.30;99.90;;;;;;5071529;28;20053;-61
2022/09/02 00:43:11;;;;;;;1999.90;999.90;;;14.30;99.90;;;;;;5072327;28;20045;-61
2022/09/02 00:45:37;;;;;;;1999.90;999.90;;;14.30;99.90;;;;;;5053727;28;20075;-61
2022/09/02 00:48:04;;;;;;;1999.90;999.90;;;14.20;99.90;;;;;;5055423;28;20087;-61
2022/09/02 00:50:34;;;;;;;1999.90;999.90;;;14.20;99.90;;;;;;5052349;28;20045;-61
2022/09/02 00:53:06;;;;;;;1999.90;999.90;;;14.10;99.90;;;;;;5033762;28;20045;-61
2022/09/02 00:55:39;;;;;;;1999.90;999.90;;;14.10;99.90;;;;;;5033181;28;20487;-60
2022/09/02 00:58:12;;;;;;;1999.90;999.90;;;14.10;99.90;;;;;;5055113;28;20130;-61
2022/09/02 01:00:41;;;;;;;;;;;14.10;99.90;;;;;;5037952;28;20044;-61
2022/09/02 01:03:10;;;;;;;1999.90;999.90;;;14.00;99.90;;;;;;5037213;28;19920;-61
2022/09/02 01:05:43;;;;;;;1999.90;999.90;;;14.00;99.90;;;;;;5055811;28;20037;-61
2022/09/02 01:08:10;;;;;;;1999.90;999.90;;;14.00;99.90;;;;;;5036796;28;20052;-61
2022/09/02 01:10:36;;;;;;;1999.90;999.90;;;13.90;99.90;;;;;;5055192;28;20041;-60
2022/09/02 01:13:07;;;;;;;1999.90;999.90;;;13.90;99.90;;;;;;5037349;28;20411;-61
2022/09/02 01:15:36;;;;;;;1999.90;999.90;;;13.90;99.90;;;;;;5036842;28;20049;-60
2022/09/02 01:18:05;;;;;;;1999.90;999.90;;;13.90;99.90;;;;;;5055508;28;20064;-61
2022/09/02 01:20:31;;;;;;;1999.90;999.90;;;13.80;99.90;;;;;;5069791;28;20040;-60
2022/09/02 01:22:57;;;;;;;1999.90;999.90;;;13.80;99.90;;;;;;5056814;28;20051;-61
2022/09/02 01:25:28;;;;;;;1999.90;999.90;;;13.80;99.90;;;;;;5075259;28;20044;-60
2022/09/02 01:28:09;;;;;;;1999.90;999.90;;;13.80;99.90;;;;;;5054073;28;20085;-61
2022/09/02 01:30:38;;;;;;;1999.90;999.90;;;13.80;99.90;;;;;;5020108;28;20128;-61
2022/09/02 01:33:04;;;;;;;1999.90;999.90;;;13.70;99.90;;;;;;5055114;28;20084;-60
2022/09/02 01:35:30;;;;;;;1999.90;999.90;;;13.80;99.90;;;;;;5020051;28;20068;-60
2022/09/02 01:37:57;;;;;;;1999.90;999.90;;;13.70;99.90;;;;;;5036786;28;20095;-60
2022/09/02 01:40:25;;;;;;;1999.90;999.90;;;13.70;99.90;;;;;;5037445;28;20104;-60
2022/09/02 01:42:57;;;;;;;1999.90;999.90;;;13.70;99.90;;;;;;5054319;28;20041;-60
2022/09/02 01:45:23;;;;;;;1999.90;999.90;;;13.70;99.90;;;;;;5036541;28;20090;-61
2022/09/02 01:47:50;;;;;;;1999.90;999.90;;;13.60;99.90;;;;;;5036788;28;20180;-60
2022/09/02 01:50:17;;;;;;;1999.90;999.90;;;13.60;99.90;;;;;;5054295;28;20037;-61
2022/09/02 01:52:43;;;;;;;1999.90;999.90;;;13.60;99.90;;;;;;5054394;28;20044;-60
2022/09/02 01:55:09;;;;;;;1999.90;999.90;;;13.50;99.90;;;;;;5036580;28;20048;-60
2022/09/02 01:57:35;;;;;;;1999.90;999.90;;;13.50;99.90;;;;;;5054264;28;20391;-60
2022/09/02 02:00:07;;;;;;;1999.90;999.90;;;13.50;99.90;;;;;;5036467;28;20044;-61
2022/09/02 02:02:38;;;;;;;1999.90;999.90;;;13.40;99.90;;;;;;5054719;28;20057;-61
2022/09/02 02:05:05;;;;;;;1999.90;999.90;;;13.40;99.90;;;;;;5053002;28;20036;-60
2022/09/02 02:07:31;;;;;;;1999.90;999.90;;;13.40;99.90;;;;;;5039743;28;20053;-60
2022/09/02 02:09:57;;;;;;;1999.90;999.90;;;13.30;99.90;;;;;;5048374;28;20091;-60
2022/09/02 02:12:23;;;;;;;1999.90;999.90;;;13.30;99.90;;;;;;5034393;28;20048;-60
2022/09/02 02:14:49;;;;;;;1999.90;999.90;;;13.40;99.90;;;;;;5059319;28;20148;-61
2022/09/02 02:17:15;;;;;;;1999.90;999.90;;;13.20;99.90;;;;;;5056747;28;19927;-60
2022/09/02 02:19:42;;;;;;;1999.90;999.90;;;13.20;99.90;;;;;;5073738;28;20040;-60
2022/09/02 02:22:09;;;;;;;1999.90;999.90;;;13.20;99.90;;;;;;5085989;28;20052;-60
2022/09/02 02:24:35;;;;;;;1999.90;999.90;;;13.20;99.90;;;;;;5076234;28;20040;-60
2022/09/02 02:27:01;;;;;;;1999.90;999.90;;;13.20;99.90;;;;;;5094461;28;20105;-60
2022/09/02 02:29:27;;;;;;;1999.90;999.90;;;13.10;99.90;;;;;;5076451;28;20044;-60
2022/09/02 02:31:53;;;;;;;1999.90;999.90;;;13.10;99.90;;;;;;5072799;28;20091;-60
2022/09/02 02:34:19;;;;;;;1999.90;999.90;;;13.10;99.90;;;;;;5074139;28;20521;-60
2022/09/02 02:36:45;;;;;;;1999.90;999.90;;;13.00;99.90;;;;;;5056317;28;20052;-60
2022/09/02 02:39:11;;;;;;;1999.90;999.90;;;13.00;99.90;;;;;;5072893;28;20032;-60
2022/09/02 02:41:39;;;;;;;1999.90;999.90;;;13.00;99.90;;;;;;5074146;28;20109;-61
2022/09/02 02:44:06;;;;;;;1999.90;999.90;;;13.00;99.90;;;;;;5072867;28;20045;-60
2022/09/02 02:46:35;;;;;;;1999.90;999.90;;;13.00;99.90;;;;;;5054605;28;20479;-60
2022/09/02 02:49:03;;;;;;;1999.90;999.90;;;13.00;99.90;;;;;;5088881;28;20055;-60
2022/09/02 02:51:28;;;;;;;1999.90;999.90;;;12.90;99.90;;;;;;5075857;28;20102;-60
2022/09/02 02:53:55;;;;;;;1999.90;999.90;;;12.90;99.90;;;;;;5074995;28;20050;-61
2022/09/02 02:56:21;;;;;;;1999.90;999.90;;;12.80;99.90;;;;;;5058376;28;20479;-60
2022/09/02 02:58:49;;;;;;;1999.90;999.90;;;12.80;99.90;;;;;;5094083;28;20048;-60
2022/09/02 03:01:15;;;;;;;1999.90;999.90;;;12.80;99.90;;;;;;5074401;28;20517;-60
2022/09/02 03:03:43;;;;;;;1999.90;999.90;;;12.80;99.90;;;;;;5055933;28;20397;-60
2022/09/02 03:06:09;;;;;;;1999.90;999.90;;;12.80;99.90;;;;;;5065997;28;20083;-60
2022/09/02 03:08:36;;;;;;;1999.90;999.90;;;12.70;99.90;;;;;;5092853;28;20051;-60
2022/09/02 03:11:05;;;;;;;1999.90;999.90;;;12.70;99.90;;;;;;5073925;28;20051;-60
2022/09/02 03:13:33;;;;;;;1999.90;999.90;;;12.70;99.90;;;;;;5055241;28;20563;-60
2022/09/02 03:16:02;;;;;;;1999.90;999.90;;;12.70;99.90;;;;;;5072461;28;20134;-61
2022/09/02 03:18:28;;;;;;;1999.90;999.90;;;12.70;99.90;;;;;;5058714;28;20098;-60
2022/09/02 03:20:54;;;;;;;1999.90;999.90;;;12.70;99.90;;;;;;5061131;28;20051;-60
2022/09/02 03:23:20;;;;;;;1999.90;999.90;;;12.60;99.90;;;;;;5078830;28;20036;-60
2022/09/02 03:25:49;;;;;;;1999.90;999.90;;;12.60;99.90;;;;;;5075648;28;20055;-60
2022/09/02 03:28:26;;;;;;;1999.90;999.90;;;12.60;99.90;;;;;;5074606;28;20047;-60
2022/09/02 03:30:52;;;;;;;1999.90;999.90;;;12.60;99.90;;;;;;5093074;28;20052;-60
2022/09/02 03:33:17;;;;;;;1999.90;999.90;;;12.50;99.90;;;;;;5092541;28;20051;-61
2022/09/02 03:35:44;;;;;;;1999.90;999.90;;;12.50;99.90;;;;;;5057652;28;20051;-60
2022/09/02 03:38:12;;;;;;;1999.90;999.90;;;12.50;99.90;;;;;;5075088;28;20043;-61
2022/09/02 03:40:38;;;;;;;1999.90;999.90;;;12.50;99.90;;;;;;5074518;28;20055;-60
2022/09/02 03:43:04;;;;;;;1999.90;999.90;;;12.40;99.90;;;;;;5074462;28;20098;-61
2022/09/02 03:45:30;;;;;;;1999.90;999.90;;;12.40;99.90;;;;;;5092917;28;20721;-60
2022/09/02 03:47:59;;;;;;;1999.90;999.90;;;12.40;99.90;;;;;;5059663;28;20450;-60
2022/09/02 03:50:33;;;;;;;1999.90;999.90;;;12.40;99.90;;;;;;5064609;28;20406;-60
2022/09/02 03:52:59;;;;;;;1999.90;999.90;;;12.40;99.90;;;;;;5074451;28;20044;-61
2022/09/02 03:55:26;;;;;;;1999.90;999.90;;;12.30;99.90;;;;;;5075058;28;20066;-60
2022/09/02 03:57:53;;;;;;;1999.90;999.90;;;12.30;99.90;;;;;;5072661;28;20039;-61
2022/09/02 04:00:23;;;;;;;1999.90;999.90;;;12.30;99.90;;;;;;5091300;28;20062;-60
2022/09/02 04:02:50;;;;;;;1999.90;999.90;;;12.30;99.90;;;;;;5074916;28;20055;-61
2022/09/02 04:05:18;;;;;;;1999.90;999.90;;;12.30;99.90;;;;;;5073855;28;20044;-60
2022/09/02 04:07:44;;;;;;;1999.90;999.90;;;12.20;99.90;;;;;;5073684;28;20040;-61
2022/09/02 04:10:11;;;;;;;1999.90;999.90;;;12.20;99.90;;;;;;5064387;28;20044;-60
2022/09/02 04:12:38;;;;;;;1999.90;999.90;;;12.20;99.90;;;;;;5051083;28;20156;-60
2022/09/02 04:15:07;;;;;;;1999.90;999.90;;;12.20;99.90;;;;;;5034440;28;20053;-61
2022/09/02 04:17:36;;;;;;;1999.90;999.90;;;12.10;99.90;;;;;;5056771;28;20044;-60
2022/09/02 04:20:06;;;;;;;1999.90;999.90;;;12.10;99.90;;;;;;5092915;28;20039;-61
2022/09/02 04:22:33;;;;;;;1999.90;999.90;;;12.10;99.90;;;;;;5074422;28;20051;-60
2022/09/02 04:24:59;;;;;;;1999.90;999.90;;;12.00;99.90;;;;;;5073478;28;20036;-60
2022/09/02 04:27:25;;;;;;;1999.90;999.90;;;12.10;99.90;;;;;;5074882;28;20044;-60
2022/09/02 04:29:53;;;;;;;1999.90;999.90;;;12.00;99.90;;;;;;5074168;28;20135;-61
2022/09/02 04:32:20;;;;;;;1999.90;999.90;;;12.00;99.90;;;;;;5093933;28;20083;-60
2022/09/02 04:34:47;;;;;;;1999.90;999.90;;;12.00;99.90;;;;;;5077757;28;20436;-60
2022/09/02 04:37:14;;;;;;;1999.90;999.90;;;12.10;99.90;;;;;;5060791;28;20058;-61
2022/09/02 04:39:40;;;;;;;1999.90;999.90;;;12.00;99.90;;;;;;5077902;28;20040;-61
2022/09/02 04:42:06;;;;;;;1999.90;999.90;;;11.90;99.90;;;;;;5096646;28;20055;-61
2022/09/02 04:44:34;;;;;;;1999.90;999.90;;;12.00;99.90;;;;;;5077624;28;20459;-61
2022/09/02 04:47:01;;;;;;;1999.90;999.90;;;12.00;99.90;;;;;;5070385;28;20116;-61
2022/09/02 04:49:30;;;;;;;1999.90;999.90;;;12.00;99.90;;;;;;5058336;28;20080;-61
2022/09/02 04:51:57;;;;;;;1999.90;999.90;;;12.00;99.90;;;;;;5061429;28;20041;-61
2022/09/02 04:54:25;;;;;;;1999.90;999.90;;;11.90;99.90;;;;;;5076439;28;20048;-60
2022/09/02 04:56:52;;;;;;;1999.90;999.90;;;11.90;99.90;;;;;;5073401;28;20055;-60
2022/09/02 04:59:20;;;;;;;1999.90;999.90;;;11.90;99.90;;;;;;5074837;28;20551;-59
2022/09/02 05:01:55;;;;;;;1999.90;999.90;;;12.00;99.90;;;;;;5070494;28;20106;-59
2022/09/02 05:04:25;;;;;;;1999.90;999.90;;;12.00;99.90;;;;;;5077304;28;20048;-59
2022/09/02 05:06:53;;;;;;;1999.90;999.90;;;11.90;99.90;;;;;;5060516;28;20059;-59
2022/09/02 05:09:20;;;;;;;1999.90;999.90;;;12.00;99.90;;;;;;5060508;28;20048;-59
2022/09/02 05:11:56;;;;;;;1999.90;999.90;;;12.10;99.90;;;;;;5066310;28;20060;-59
2022/09/02 05:14:24;;;;;;;1999.90;999.90;;;12.00;99.90;;;;;;5069886;28;20053;-60
2022/09/02 05:16:52;;;;;;;1999.90;999.90;;;12.10;99.90;;;;;;5037964;28;20372;-59
2022/09/02 05:19:20;;;;;;;1999.90;999.90;;;12.20;99.90;;;;;;5085116;28;20402;-60
2022/09/02 05:21:49;;;;;;;1999.90;999.90;;;12.20;99.90;;;;;;5056516;28;20032;-61
2022/09/02 05:24:25;;;;;;;1999.90;999.90;;;12.30;99.90;;;;;;5057812;28;20040;-61
2022/09/02 05:26:50;;;;;;;1999.90;999.90;;;12.30;99.90;;;;;;5075131;28;20387;-61
2022/09/02 05:29:19;;;;;;;1999.90;999.90;;;12.40;99.90;;;;;;5092246;28;20837;-61
2022/09/02 05:31:47;;;;;;;1999.90;999.90;;;12.50;99.90;;;;;;5077373;28;20386;-61
2022/09/02 05:34:14;;;;;;;1999.90;999.90;;;12.60;99.90;;;;;;5077517;28;20080;-61
2022/09/02 05:36:41;;;;;;;1999.90;999.90;;;12.70;99.90;;;;;;5059344;28;20457;-60
2022/09/02 05:39:08;;;;;;;1999.90;999.90;;;12.80;99.90;;;;;;5095283;28;20601;-60
2022/09/02 05:41:35;;;;;;;1999.90;999.90;;;12.80;99.90;;;;;;5076577;28;20075;-59
2022/09/02 05:44:03;;;;;;;1999.90;999.90;;;12.90;99.90;;;;;;5076714;28;20090;-60
2022/09/02 05:46:31;;;;;;;1999.90;999.90;;;13.00;99.90;;;;;;5073682;28;20368;-60
2022/09/02 05:49:06;;;;;;;1999.90;999.90;;;13.10;99.90;;;;;;5055916;28;20544;-60
2022/09/02 05:51:42;;;;;;;1999.90;999.90;;;13.20;99.90;;;;;;5074520;28;20044;-60
2022/09/02 05:54:11;;;;;;;1999.90;999.90;;;13.30;99.90;;;;;;5065864;28;20047;-60
2022/09/02 05:56:40;;;;;;;1999.90;999.90;;;13.50;99.90;;;;;;5061994;28;20051;-60
2022/09/02 05:59:07;;;;;;;1999.90;999.90;;;13.60;99.90;;;;;;5056658;28;20060;-60
2022/09/02 06:01:33;;;;;;;1999.90;999.90;;;13.70;99.90;;;;;;5057167;28;20058;-60
2022/09/02 06:04:01;;;;;;;1999.90;999.90;;;13.80;99.90;;;;;;5071092;28;20051;-60
2022/09/02 06:06:28;;;;;;;1999.90;999.90;;;13.80;99.90;;;;;;5076465;28;20119;-60
2022/09/02 06:08:54;;;;;;;1999.90;999.90;;;14.00;99.90;;;;;;5061755;28;20048;-60
2022/09/02 06:11:21;;;;;;;1999.90;999.90;;;14.00;99.90;;;;;;5067250;28;20055;-60
2022/09/02 06:13:47;;;;;;;1999.90;999.90;;;14.10;99.90;;;;;;5059803;28;20099;-60
2022/09/02 06:16:16;;;;;;;1999.90;999.90;;;14.30;99.90;;;;;;5057910;28;20060;-60
2022/09/02 06:18:42;;;;;;;1999.90;999.90;;;14.40;99.90;;;;;;5075865;28;20055;-60
2022/09/02 06:21:09;;;;;;;1999.90;999.90;;;14.50;99.90;;;;;;5062785;28;20041;-60
2022/09/02 06:23:40;;;;;;;1999.90;999.90;;;14.60;99.90;;;;;;5056461;28;20044;-60
2022/09/02 06:26:10;;;;;;;1999.90;999.90;;;14.70;99.90;;;;;;5039098;28;20032;-59
2022/09/02 06:28:37;;;;;;;1999.90;999.90;;;14.80;99.90;;;;;;5055780;28;20048;-60
2022/09/02 06:31:13;;;;;;;1999.90;999.90;;;15.00;99.90;;;;;;5055785;28;20389;-59
2022/09/02 06:33:42;;;;;;;1999.90;999.90;;;15.10;99.90;;;;;;5055718;28;20056;-60
2022/09/02 06:36:10;;;;;;;1999.90;999.90;;;15.20;99.90;;;;;;5072963;28;20127;-60
2022/09/02 06:38:38;;;;;;;1999.90;999.90;;;15.40;99.90;;;;;;5050800;28;20053;-60
2022/09/02 06:41:06;;;;;;;1999.90;999.90;;;15.50;99.90;;;;;;5056256;28;20048;-60
2022/09/02 06:43:39;;;;;;;1999.90;999.90;;;15.50;99.90;;;;;;5088778;28;20056;-60
2022/09/02 06:46:16;;;;;;;1999.90;999.90;;;15.80;99.90;;;;;;5037766;28;20048;-60
2022/09/02 06:48:44;;;;;;;1999.90;999.90;;;15.90;99.90;;;;;;5035766;28;20056;-60
2022/09/02 06:51:21;;;;;;;1999.90;999.90;;;16.00;99.90;;;;;;5019402;28;20534;-60
2022/09/02 06:53:49;;;;;;;1999.90;999.90;;;16.10;99.90;;;;;;5037131;28;20055;-60
2022/09/02 06:56:16;;;;;;;1999.90;999.90;;;16.30;99.90;;;;;;5053827;28;20486;-60
2022/09/02 06:58:42;;;;;;;1999.90;999.90;;;16.30;99.90;;;;;;5046392;28;20048;-60
2022/09/02 07:01:12;;;;;;;1999.90;999.90;;;16.40;99.90;;;;;;5034153;28;20398;-60
2022/09/02 07:06:23;;;;;;;1999.90;999.90;;;16.70;99.90;;;;;;5090233;28;20127;-60
2022/09/02 07:08:51;;;;;;;1999.90;999.90;;;16.70;99.90;;;;;;5075584;28;20055;-60
2022/09/02 07:11:21;;;;;;;1999.90;999.90;;;16.80;99.90;;;;;;5071580;28;20040;-60
2022/09/02 07:13:49;;;;;;;1999.90;999.90;;;16.90;99.90;;;;;;5054392;28;20387;-60
2022/09/02 07:16:17;;;;;;;1999.90;999.90;;;17.00;99.90;;;;;;5055282;28;20040;-60
2022/09/02 07:18:43;;;;;;;1999.90;999.90;;;17.10;99.90;;;;;;5072855;28;20036;-60
2022/09/02 07:21:11;;;;;;;1999.90;999.90;;;17.20;99.90;;;;;;5071130;28;20046;-60
2022/09/02 07:23:38;;;;;;;1999.90;999.90;;;17.40;99.90;;;;;;5054748;28;20440;-60
2022/09/02 07:26:12;;;;;;;1999.90;999.90;;;17.50;99.90;;;;;;5055115;28;20063;-60
2022/09/02 07:28:41;;;;;;;1999.90;999.90;;;17.70;99.90;;;;;;5054511;28;20178;-60
2022/09/02 07:31:13;;;;;;;1999.90;999.90;;;17.80;99.90;;;;;;5071736;28;20083;-60
2022/09/02 07:33:39;;;;;;;1999.90;999.90;;;18.00;99.90;;;;;;5071275;28;20051;-60
2022/09/02 07:36:09;;;;;;;1999.90;999.90;;;18.10;99.90;;;;;;5038019;28;20048;-60
2022/09/02 07:38:37;;;;;;;1999.90;999.90;;;18.20;99.90;;;;;;5055261;28;20036;-60
2022/09/02 07:41:03;;;;;;;1999.90;999.90;;;18.40;99.90;;;;;;5080587;28;20056;-60
2022/09/02 07:43:33;;;;;;;1999.90;999.90;;;18.50;99.90;;;;;;5075238;28;20541;-60
2022/09/02 07:46:01;;;;;;;1999.90;999.90;;;18.70;99.90;;;;;;5093111;28;20062;-60
2022/09/02 07:48:29;;;;;;;1999.90;999.90;;;18.80;99.90;;;;;;5054253;28;20087;-60
2022/09/02 07:50:55;;;;;;;1999.90;999.90;;;18.90;99.90;;;;;;5055019;28;20059;-60
2022/09/02 07:53:23;;;;;;;1999.90;999.90;;;19.10;99.90;;;;;;5054696;28;20055;-60
2022/09/02 07:55:50;;;;;;;1999.90;999.90;;;19.20;99.90;;;;;;5054021;28;20041;-60
2022/09/02 07:58:19;;;;;;;1999.90;999.90;;;19.30;99.90;;;;;;5071304;28;20051;-60
2022/09/02 08:00:45;;;;;;;1999.90;999.90;;;19.40;99.90;;;;;;5042661;28;20083;-60
2022/09/02 08:03:13;;;;;;;1999.90;999.90;;;19.50;99.90;;;;;;5055301;28;20371;-60
2022/09/02 08:05:45;;;;;;;1999.90;999.90;;;19.60;99.90;;;;;;5054353;28;20060;-60
2022/09/02 08:08:13;;;;;;;1999.90;999.90;;;19.80;99.90;;;;;;5086969;28;20036;-60
2022/09/02 08:10:40;;;;;;;1999.90;999.90;;;19.90;99.70;;;;;;5091968;28;20123;-60
2022/09/02 08:13:07;;;;;;;1999.90;999.90;;;20.00;99.70;;;;;;5074020;28;20037;-60
2022/09/02 08:15:34;;;;;;;1999.90;999.90;;;20.20;99.50;;;;;;5075413;28;20047;-60
2022/09/02 08:18:02;;;;;;;1999.90;999.90;;;20.30;99.00;;;;;;5088128;28;20395;-60
2022/09/02 08:20:29;;;;;;;1999.90;999.90;;;20.50;98.80;;;;;;5072403;28;20528;-60
2022/09/02 08:22:56;;;;;;;1999.90;999.90;;;20.60;98.60;;;;;;5054482;28;20057;-60
2022/09/02 08:25:21;;;;;;;1999.90;999.90;;;20.70;98.50;;;;;;5081489;28;20044;-60
2022/09/02 08:27:48;;;;;;;1999.90;999.90;;;20.80;98.10;;;;;;5092687;28;20406;-60
2022/09/02 08:30:14;;;;;;;1999.90;999.90;;;20.90;98.10;;;;;;5092717;28;20044;-60
2022/09/02 08:32:40;;;;;;;1999.90;999.90;;;21.00;98.00;;;;;;5090935;28;20044;-60
2022/09/02 08:35:07;;;;;;;1999.90;999.90;;;21.10;97.90;;;;;;5092741;28;20042;-60
2022/09/02 08:37:34;;;;;;;1999.90;999.90;;;21.20;97.40;;;;;;5073926;28;20046;-60
2022/09/02 08:40:05;;;;;;;1999.90;999.90;;;21.30;97.20;;;;;;5092100;28;20375;-60
2022/09/02 08:42:32;;;;;;;1999.90;999.90;;;21.40;96.90;;;;;;5074000;28;20084;-60
2022/09/02 08:45:05;;;;;;;1999.90;999.90;;;21.50;97.10;;;;;;5073682;28;20063;-60
2022/09/02 08:47:34;;;;;;;1999.90;999.90;;;21.60;96.80;;;;;;5080834;28;20040;-60
2022/09/02 08:50:04;;;;;;;1999.90;999.90;;;21.70;96.40;;;;;;5072092;28;20091;-60
2022/09/02 08:52:37;;;;;;;1999.90;999.90;;;21.80;96.20;;;;;;5075899;28;20394;-60
2022/09/02 08:55:05;;;;;;;1999.90;999.90;;;21.90;95.70;;;;;;5049054;28;20045;-60
2022/09/02 08:57:31;;;;;;;1999.90;999.90;;;22.00;95.60;;;;;;5070622;28;20056;-59
2022/09/02 09:00:00;;;;;;;1999.90;999.90;;;22.10;95.40;;;;;;5069520;28;20387;-59
2022/09/02 09:02:46;;;;;;;1999.90;999.90;;;22.20;95.20;;;;;;5072006;28;20501;-60
2022/09/02 09:05:23;;;;;;;1999.90;999.90;;;22.40;95.20;;;;;;5072372;28;20049;-60
2022/09/02 09:08:18;;;;;;;1999.90;999.90;;;22.50;95.00;;;;;;5070712;28;20057;-60
2022/09/02 09:11:09;;;;;;;1999.90;999.90;;;22.70;94.10;;;;;;5072041;28;20364;-60
2022/09/02 09:13:46;;;;;;;1999.90;999.90;;;22.90;93.90;;;;;;5051274;28;20053;-60
2022/09/02 09:16:28;;;;;;;1999.90;999.90;;;23.10;93.00;;;;;;5051540;28;20053;-60
2022/09/02 09:19:12;;;;;;;1999.90;999.90;;;23.40;92.40;;;;;;5088726;28;20051;-60
2022/09/02 09:21:39;;;;;;;1999.90;999.90;;;23.60;91.30;;;;;;5076753;28;20051;-60
2022/09/02 09:24:21;;;;;;;1999.90;999.90;;;23.70;90.70;;;;;;5094192;28;20568;-60
2022/09/02 09:26:47;;;;;;;1999.90;999.90;;;23.90;90.60;;;;;;5067526;28;20044;-60
2022/09/02 09:29:13;;;;;;;1999.90;999.90;;;24.00;90.40;;;;;;5075543;28;20367;-60
2022/09/02 09:31:40;;;;;;;1999.90;999.90;;;24.20;89.70;;;;;;5075225;28;20052;-60
2022/09/02 09:34:10;;;;;;;1999.90;999.90;;;24.30;89.20;;;;;;5074518;28;20045;-60
2022/09/02 09:36:44;;;;;;;1999.90;999.90;;;24.30;88.40;;;;;;5087221;28;20040;-60
2022/09/02 09:39:23;;;;;;;1999.90;999.90;;;24.40;87.50;;;;;;5094916;28;20052;-60
2022/09/02 09:41:52;;;;;;;1999.90;999.90;;;24.50;87.20;;;;;;5082858;28;20097;-60
2022/09/02 09:44:40;;;;;;;1999.90;999.90;;;24.60;87.30;;;;;;5082359;28;20071;-60
2022/09/02 09:47:10;;;;;;;1999.90;999.90;;;24.70;86.40;;;;;;5068764;28;20047;-60
2022/09/02 09:49:37;;;;;;;1999.90;999.90;;;24.90;85.20;;;;;;5074233;28;20135;-60
2022/09/02 09:52:04;;;;;;;1999.90;999.90;;;25.00;84.20;;;;;;5074878;28;20106;-60
2022/09/02 09:54:30;;;;;;;1999.90;999.90;;;25.10;84.10;;;;;;5094178;28;20112;-61
2022/09/02 09:57:14;;;;;;;1999.90;999.90;;;25.20;83.50;;;;;;5094547;28;20383;-61
2022/09/02 09:59:44;;;;;;;1999.90;999.90;;;25.30;83.90;;;;;;5075735;28;20041;-61
2022/09/02 10:02:20;;;;;;;1999.90;999.90;;;25.40;82.70;;;;;;5082153;28;20047;-61
2022/09/02 10:04:47;;;;;;;1999.90;999.90;;;25.50;82.10;;;;;;5095345;28;20442;-61
2022/09/02 10:07:13;;;;;;;1999.90;999.90;;;25.60;80.80;;;;;;5095235;28;20050;-61
2022/09/02 10:09:39;;;;;;;1999.90;999.90;;;25.80;81.80;;;;;;5093274;28;20051;-61
2022/09/02 10:12:07;;;;;;;1999.90;999.90;;;26.10;96.40;;;;;;5084872;28;20043;-61
2022/09/02 10:14:36;;;;;;;1999.90;999.90;;;;;;;;;;5074281;28;20048;-62
2022/09/02 10:17:01;;;;;;;1999.90;999.90;;;26.80;76.00;;;;;;5073636;28;20044;-61
2022/09/02 10:19:43;;;;;;;1999.90;999.90;;;27.10;75.50;;;;;;5063705;28;20487;-61
2022/09/02 10:22:13;;;;;;;1999.90;999.90;;;27.70;73.50;;;;;;5094860;28;20048;-61
2022/09/02 10:24:41;;;;;;;1999.90;999.90;;;;;;;;;;5093826;28;20105;-61
2022/09/02 10:27:13;;;;;;;1999.90;999.90;;;28.70;68.60;;;;;;5094618;28;20048;-61
2022/09/02 10:29:53;;;;;;;1999.90;999.90;;;29.10;66.10;;;;;;5093055;28;20115;-61
2022/09/02 10:32:45;;;;;;;1999.90;999.90;;;29.50;65.40;;;;;;5094129;28;20083;-61
2022/09/02 10:35:17;;;;;;;1999.90;999.90;;;30.40;62.30;;;;;;5076365;28;20052;-61
2022/09/02 10:37:58;;;;;;;1999.90;999.90;;;30.50;61.20;;;;;;5085345;28;20048;-61
2022/09/02 10:40:36;;;;;;;1999.90;999.90;;;30.90;60.00;;;;;;5076011;28;20109;-61
2022/09/02 10:43:26;;;;;;;1999.90;999.90;;;31.20;58.00;;;;;;5094352;28;20100;-61
2022/09/02 10:45:58;;;;;;;1999.90;999.90;;;31.40;57.10;;;;;;5092450;28;20055;-61
2022/09/02 10:48:45;;;;;;;1999.90;999.90;;;31.60;55.90;;;;;;5075171;28;20052;-61
2022/09/02 10:51:32;;;;;;;1999.90;999.90;;;31.80;55.10;;;;;;5073148;28;20119;-62
2022/09/02 10:54:17;;;;;;;1999.90;999.90;;;32.00;55.20;;;;;;5073181;28;20080;-62
2022/09/02 10:56:49;;;;;;;1999.90;999.90;;;;;;;;;;5087140;28;20044;-62
2022/09/02 10:59:23;;;;;;;1999.90;999.90;;;32.50;53.80;;;;;;5093446;28;20048;-61
2022/09/02 11:02:12;;;;;;;1999.90;999.90;;;32.70;53.40;;;;;;5093749;28;20044;-62
2022/09/02 11:04:45;;;;;;;1999.90;999.90;;;33.00;53.30;;;;;;5093455;28;20048;-62
2022/09/02 11:07:21;;;;;;;1999.90;999.90;;;33.40;63.50;;;;;;5074778;28;20094;-62
2022/09/02 11:09:53;;;;;;;1999.90;999.90;;;33.40;50.80;;;;;;5075114;28;20105;-62
2022/09/02 11:12:25;;;;;;;1999.90;999.90;;;33.50;50.40;;;;;;5080419;28;20095;-62
2022/09/02 11:15:18;;;;;;;1999.90;999.90;;;33.60;49.70;;;;;;5073115;28;20048;-61
2022/09/02 11:18:00;;;;;;;1999.90;999.90;;;33.90;50.00;;;;;;5073490;28;20072;-62
2022/09/02 11:20:46;;;;;;;1999.90;999.90;;;34.00;48.30;;;;;;5072113;28;20418;-62
2022/09/02 11:23:21;;;;;;;1999.90;999.90;;;34.10;48.70;;;;;;5090380;28;20357;-62
2022/09/02 11:25:56;;;;;;;1999.90;999.90;;;34.20;48.30;;;;;;5093663;28;20044;-61
2022/09/02 11:28:31;;;;;;;1999.90;999.90;;;34.30;47.20;;;;;;5092680;28;20056;-61
2022/09/02 11:31:05;;;;;;;1999.90;999.90;;;34.60;46.90;;;;;;5060143;28;20155;-62
2022/09/02 11:33:45;;;;;;;1999.90;999.90;;;34.60;45.80;;;;;;5072293;28;20052;-62
2022/09/02 11:36:11;;;;;;;1999.90;999.90;;;34.80;45.80;;;;;;5073144;28;20525;-62
2022/09/02 11:38:47;;;;;;;1999.90;999.90;;;35.10;45.90;;;;;;5076437;28;20138;-62
2022/09/02 11:41:18;;;;;;;1999.90;999.90;;;;;;;;;;5092123;28;20048;-61
2022/09/02 11:43:46;;;;;;;1999.90;999.90;;;35.80;45.00;;;;;;5093154;28;20051;-61
2022/09/02 11:46:25;;;;;;;1999.90;999.90;;;35.80;43.80;;;;;;5066079;28;20044;-61
2022/09/02 11:48:57;;;;;;;1999.90;999.90;;;35.70;44.30;;;;;;5050705;28;20061;-61
2022/09/02 11:51:40;;;;;;;1999.90;999.90;;;36.00;44.20;;;;;;5069863;28;20581;-61
2022/09/02 11:54:10;;;;;;;1999.90;999.90;;;36.00;44.00;;;;;;5069841;28;20151;-62
2022/09/02 11:56:39;;;;;;;1999.90;999.90;;;36.10;43.50;;;;;;5070832;28;20435;-61
2022/09/02 11:59:06;;;;;;;1999.90;999.90;;;36.30;43.90;;;;;;5071792;28;20044;-61
2022/09/02 12:01:37;;;;;;;1999.90;999.90;;;36.40;42.80;;;;;;5070670;28;20032;-61
2022/09/02 12:04:05;;;;;;;1999.90;999.90;;;36.50;42.90;;;;;;5069797;28;20055;-61
2022/09/02 12:06:32;;;;;;;1999.90;999.90;;;36.40;42.60;;;;;;5071800;28;20037;-61
2022/09/02 12:09:04;;;;;;;1999.90;999.90;;;36.30;42.90;;;;;;5070371;28;20040;-61
2022/09/02 12:11:44;;;;;;;1999.90;999.90;;;36.30;42.30;;;;;;5051496;28;20044;-61
2022/09/02 12:14:31;;;;;;;1999.90;999.90;;;36.40;41.80;;;;;;5068400;28;20475;-61
2022/09/02 12:17:06;;;;;;;1999.90;999.90;;;36.60;42.20;;;;;;5051730;28;20051;-62